Plaza, North Dakota
Current Conditions -  °F | °C
As of 10:15 AM on Monday 24 Nov 2014 (Local Time) from K08D Reporting Station
Clear Clear  
Wind Chill:   Ceiling: Unl
Heat Index: 12°   Visibility: 10mi
Dew Point:   Wind: 7mph
Humidity: 85%   Direction: 320°NW
Pressure: 29.9"   Gusts: NA
Location:  48.03°N, 101.96°W
Report Text: K08D 241615Z AUTO 32006KT 10SM CLR M11/M13 A2990 RMK AO2
Loading
Personal Weather Stations






























Interactive Weather Map New forecast layout! Learn more

10-Day Weather Forecast

Advertisements
Track Severe Weather on mobile